Etusivu
METAR-TAF:

METAR-TAF

Lentoasemat :

Tuxtla Gutiérrez, Meksiko

Leveyspiiri: 16-45N, Pituuspiiri: 093-07W, korkeus merenpinnasta: 528 m

Tämänhetkinen sää

Tämä raportti tehtiin 1 tunti ja 14 minuuttia sitten, kello 21.48 UTC
Tuuli 20 kn luoteesta
Lämpötila 27°C
Kosteus 54%
Ilmanpaine 1014 hPa
Näkyvyys: 8.0 km
Hajanaisia pilviä 4000 ft:n korkeudessa, Kasvava cumulus-pilvi.

METAR: MMTG 242148Z 32020KT 5SM SCT040TCU 27/17 A2995 RMK 8/200 FU HZ

Aika: 17:02 (23:02 UTC)

Sääennuste

Tämä raportti tehtiin 5 tuntia ja 47 minuuttia sitten, kello 17.15 UTC
Ennuste voimassa 24. päivästä klo 18 UTC - 25. päivään klo 18 UTC
Tuuli 8 kn pohjoisesta
Näkyvyys: 10 km
Hajonneita pilviä 2500 ft:n korkeudessa
From 25. päivästä klo 0300 UTC
Tuuli kn pohjoisesta
Näkyvyys: 9.7 km
Hajonneita pilviä 2000 ft:n korkeudessa
usvaa

TAF: MMTG 241715Z 2418/2518 35008KT P6SM BKN025 FM250300 00000KT 6SM HZ BKN020

Säähavainnot ja -ennusteet yli 4000 lentoasemalta (METAR- ja TAF-raportit).

Käytössä olevat sääasemat on merkitty karttaan keltaisilla ja punaisilla pisteillä.

Aseta hiiri pisteen päälle nähdäksesi sääaseman nimen.

Klikkaa sitten nähdäksesi säähavainnot ja -ennusteet.

Kartan vaihtaminen: klikkaa mustalla rastilla varustettuja vihreitä pisteitä, niin voit zoomata sisään; viivalla varustettua vihreää pistettä, niin voit zoomata ulos tai vihreitä nuolia, niin pääset viereisille kartoille.


METAR-TAF: